Bury, United Kingdom
Current Conditions -  °F | °C
As of 10:20 AM on Tuesday 21 Oct 2014 (Local Time) from EGCC Reporting Station
Rain Showers Rain Showers  
Wind Chill: 50°   Ceiling: Unl
Heat Index: 50°   Visibility: 6mi
Dew Point: 43°   Wind: 20mph
Humidity: 76%   Direction: 290°WNW
Pressure: 29.53"   Gusts: NA
Location:  53.59°N, 2.3°W
Report Text: EGCC 210920Z 29017KT 9999 8000S VCSH FEW027CB SCT032 10/06 Q1000 TEMPO SHRA
Loading
Personal Weather Stations






























Interactive Weather Map
Tropical Storm Tracking
New forecast layout! Learn more

10-Day Weather Forecast

Advertisements
Track Severe Weather on mobile